createdAt,value
2022-08-24T00:02:20.742Z,17.80
2022-08-24T00:04:47.644Z,17.80
2022-08-24T00:07:28.003Z,17.80
2022-08-24T00:09:55.351Z,17.70
2022-08-24T00:12:22.201Z,17.70
2022-08-24T00:14:49.401Z,17.70
2022-08-24T00:17:17.113Z,17.70
2022-08-24T00:19:44.031Z,17.60
2022-08-24T00:22:11.040Z,17.60
2022-08-24T00:24:38.050Z,17.50
2022-08-24T00:27:06.827Z,17.40
2022-08-24T00:29:34.714Z,17.30
2022-08-24T00:32:01.709Z,17.20
2022-08-24T00:34:28.683Z,17.20
2022-08-24T00:36:55.512Z,17.20
2022-08-24T00:39:22.528Z,17.10
2022-08-24T00:41:51.468Z,17.00
2022-08-24T00:44:20.386Z,17.00
2022-08-24T00:47:02.139Z,16.90
2022-08-24T00:49:47.739Z,16.80
2022-08-24T00:52:17.954Z,16.70
2022-08-24T00:55:00.110Z,16.70
2022-08-24T00:57:31.794Z,16.70
2022-08-24T01:00:05.074Z,16.70
2022-08-24T01:02:35.276Z,16.70
2022-08-24T01:05:07.610Z,16.80
2022-08-24T01:07:35.883Z,16.80
2022-08-24T01:10:08.740Z,16.80
2022-08-24T01:12:37.843Z,16.80
2022-08-24T01:15:07.785Z,16.90
2022-08-24T01:17:39.134Z,16.90
2022-08-24T01:20:08.943Z,16.80
2022-08-24T01:22:54.043Z,16.90
2022-08-24T01:25:23.186Z,16.80
2022-08-24T01:27:53.167Z,16.70
2022-08-24T01:30:21.942Z,16.70
2022-08-24T01:33:00.660Z,16.70
2022-08-24T01:35:28.665Z,16.60
2022-08-24T01:37:58.101Z,16.60
2022-08-24T01:40:33.339Z,16.50
2022-08-24T01:43:00.405Z,16.50
2022-08-24T01:45:27.667Z,16.40
2022-08-24T01:47:54.491Z,16.50
2022-08-24T01:50:21.307Z,16.40
2022-08-24T01:53:05.115Z,16.40
2022-08-24T01:55:33.439Z,16.40
2022-08-24T01:58:01.297Z,16.40
2022-08-24T02:00:29.051Z,16.40
2022-08-24T02:02:56.094Z,16.30
2022-08-24T02:05:23.425Z,16.30
2022-08-24T02:07:51.489Z,16.30
2022-08-24T02:10:19.197Z,16.30
2022-08-24T02:12:47.815Z,16.30
2022-08-24T02:15:14.591Z,16.20
2022-08-24T02:17:41.394Z,16.10
2022-08-24T02:20:08.938Z,16.10
2022-08-24T02:22:35.737Z,16.00
2022-08-24T02:25:02.513Z,16.00
2022-08-24T02:27:29.433Z,15.90
2022-08-24T02:29:56.209Z,15.90
2022-08-24T02:32:23.024Z,15.90
2022-08-24T02:34:49.829Z,15.90
2022-08-24T02:37:21.464Z,15.90
2022-08-24T02:39:48.413Z,15.80
2022-08-24T02:42:15.316Z,15.70
2022-08-24T02:44:42.125Z,15.80
2022-08-24T02:47:08.956Z,15.80
2022-08-24T02:49:36.049Z,15.80
2022-08-24T02:52:03.532Z,15.70
2022-08-24T02:54:30.349Z,15.80
2022-08-24T02:56:57.162Z,15.80
2022-08-24T02:59:23.969Z,15.80
2022-08-24T03:01:51.573Z,15.80
2022-08-24T03:04:19.268Z,15.80
2022-08-24T03:06:46.133Z,15.80
2022-08-24T03:09:13.391Z,15.70
2022-08-24T03:11:40.540Z,15.80
2022-08-24T03:14:12.100Z,15.70
2022-08-24T03:16:38.967Z,15.60
2022-08-24T03:19:05.851Z,15.60
2022-08-24T03:21:32.770Z,15.50
2022-08-24T03:23:59.846Z,15.50
2022-08-24T03:26:26.702Z,15.50
2022-08-24T03:28:54.174Z,15.40
2022-08-24T03:31:21.075Z,15.40
2022-08-24T03:33:47.967Z,15.50
2022-08-24T03:36:14.800Z,15.40
2022-08-24T03:38:42.509Z,15.40
2022-08-24T03:41:09.715Z,15.40
2022-08-24T03:43:39.842Z,15.40
2022-08-24T03:46:08.243Z,15.40
2022-08-24T03:48:35.623Z,15.40
2022-08-24T03:51:02.664Z,15.40
2022-08-24T03:53:29.521Z,15.50
2022-08-24T03:55:56.342Z,15.50
2022-08-24T03:58:23.154Z,15.50
2022-08-24T04:00:50.034Z,15.60
2022-08-24T04:03:17.027Z,15.60
2022-08-24T04:05:43.830Z,15.60
2022-08-24T04:08:11.185Z,15.60
2022-08-24T04:10:43.611Z,15.50
2022-08-24T04:13:10.592Z,15.50
2022-08-24T04:15:40.871Z,15.40
2022-08-24T04:18:07.884Z,15.30
2022-08-24T04:20:43.979Z,15.20
2022-08-24T04:23:13.091Z,15.20
2022-08-24T04:25:45.773Z,15.20
2022-08-24T04:28:14.682Z,15.10
2022-08-24T04:30:43.772Z,15.10
2022-08-24T04:33:13.049Z,15.10
2022-08-24T04:35:41.876Z,15.20
2022-08-24T04:38:09.265Z,15.20
2022-08-24T04:40:39.788Z,15.30
2022-08-24T04:43:07.099Z,15.40
2022-08-24T04:45:37.817Z,15.50
2022-08-24T04:48:04.801Z,15.60
2022-08-24T04:50:35.175Z,15.80
2022-08-24T04:53:02.735Z,15.90
2022-08-24T04:55:29.680Z,16.00
2022-08-24T04:57:56.532Z,16.00
2022-08-24T05:00:23.405Z,16.10
2022-08-24T05:02:50.383Z,16.10
2022-08-24T05:05:17.270Z,16.20
2022-08-24T05:07:44.085Z,16.30
2022-08-24T05:10:11.109Z,16.40
2022-08-24T05:12:38.486Z,16.40
2022-08-24T05:15:06.387Z,16.30
2022-08-24T05:17:33.198Z,16.40
2022-08-24T05:20:00.103Z,16.50
2022-08-24T05:22:27.361Z,16.60
2022-08-24T05:24:54.163Z,16.80
2022-08-24T05:27:21.100Z,16.70
2022-08-24T05:29:55.071Z,16.80
2022-08-24T05:32:22.330Z,16.80
2022-08-24T05:34:49.123Z,16.80
2022-08-24T05:37:15.907Z,16.90
2022-08-24T05:39:42.774Z,17.00
2022-08-24T05:42:09.897Z,17.10
2022-08-24T05:44:36.690Z,17.40
2022-08-24T05:47:03.665Z,17.40
2022-08-24T05:49:30.637Z,17.50
2022-08-24T05:51:57.421Z,17.60
2022-08-24T05:54:24.228Z,17.80
2022-08-24T05:56:51.035Z,17.90
2022-08-24T05:59:18.238Z,18.00
2022-08-24T06:01:45.672Z,18.00
2022-08-24T06:04:12.728Z,18.00
2022-08-24T06:06:39.683Z,18.10
2022-08-24T06:09:06.682Z,18.20
2022-08-24T06:11:37.405Z,18.30
2022-08-24T06:14:08.300Z,18.30
2022-08-24T06:16:43.530Z,18.40
2022-08-24T06:19:12.730Z,18.40
2022-08-24T06:21:40.312Z,18.30
2022-08-24T06:24:07.754Z,18.30
2022-08-24T06:26:35.754Z,18.40
2022-08-24T06:29:02.803Z,18.60
2022-08-24T06:31:29.732Z,18.70
2022-08-24T06:34:10.323Z,18.80
2022-08-24T06:36:37.166Z,19.00
2022-08-24T06:39:07.240Z,19.10
2022-08-24T06:41:37.750Z,19.20
2022-08-24T06:44:05.807Z,19.40
2022-08-24T06:46:33.252Z,19.60
2022-08-24T06:49:00.383Z,19.50
2022-08-24T06:51:27.190Z,19.60
2022-08-24T06:53:55.037Z,19.60
2022-08-24T06:56:22.004Z,19.60
2022-08-24T06:58:48.770Z,19.50
2022-08-24T07:01:20.109Z,19.50
2022-08-24T07:03:47.268Z,19.50
2022-08-24T07:06:14.539Z,19.80
2022-08-24T07:08:42.777Z,19.80
2022-08-24T07:11:10.910Z,20.00
2022-08-24T07:13:38.062Z,20.10
2022-08-24T07:16:05.133Z,20.20
2022-08-24T07:18:32.012Z,20.30
2022-08-24T07:21:01.317Z,20.50
2022-08-24T07:23:41.238Z,20.50
2022-08-24T07:26:20.977Z,20.40
2022-08-24T07:28:56.218Z,20.40
2022-08-24T07:31:23.136Z,20.50
2022-08-24T07:33:49.973Z,20.60
2022-08-24T07:36:20.897Z,20.80
2022-08-24T07:38:52.835Z,21.00
2022-08-24T07:41:46.902Z,21.30
2022-08-24T07:44:09.379Z,21.50
2022-08-24T07:46:36.901Z,21.80
2022-08-24T07:49:11.900Z,21.90
2022-08-24T07:51:46.991Z,21.80
2022-08-24T07:54:14.983Z,21.60
2022-08-24T07:56:42.808Z,21.40
2022-08-24T07:59:12.970Z,21.50
2022-08-24T08:01:41.061Z,21.50
2022-08-24T08:04:08.333Z,21.80
2022-08-24T08:06:35.459Z,21.60
2022-08-24T08:09:02.298Z,21.80
2022-08-24T08:11:29.120Z,21.70
2022-08-24T08:13:55.941Z,21.60
2022-08-24T08:16:22.796Z,21.60
2022-08-24T08:18:56.459Z,21.70
2022-08-24T08:21:48.730Z,21.80
2022-08-24T08:24:16.046Z,22.10
2022-08-24T08:26:44.940Z,22.40
2022-08-24T08:29:12.508Z,22.10
2022-08-24T08:31:40.433Z,22.20
2022-08-24T08:34:08.145Z,22.50
2022-08-24T08:36:35.662Z,23.20
2022-08-24T08:39:02.926Z,26.00
2022-08-24T08:41:44.766Z,27.20
2022-08-24T08:44:38.186Z,26.90
2022-08-24T08:47:08.073Z,27.60
2022-08-24T08:50:05.307Z,27.20
2022-08-24T08:52:41.351Z,28.40
2022-08-24T08:55:29.814Z,29.10
2022-08-24T08:58:12.591Z,29.60
2022-08-24T09:00:58.441Z,28.70
2022-08-24T09:03:36.477Z,28.00
2022-08-24T09:06:34.679Z,28.00
2022-08-24T09:09:10.195Z,27.90
2022-08-24T09:12:08.235Z,29.00
2022-08-24T09:14:56.842Z,28.60
2022-08-24T09:17:51.065Z,27.40
2022-08-24T09:20:55.429Z,27.60
2022-08-24T09:23:41.879Z,28.30
2022-08-24T09:26:18.594Z,29.80
2022-08-24T09:29:08.096Z,28.90
2022-08-24T09:32:22.514Z,30.00
2022-08-24T09:35:26.620Z,29.00
2022-08-24T09:38:16.761Z,29.00
2022-08-24T09:41:16.715Z,28.80
2022-08-24T09:44:13.917Z,29.30
2022-08-24T09:46:46.536Z,29.40
2022-08-24T09:49:43.185Z,30.40
2022-08-24T09:52:40.745Z,29.90
2022-08-24T09:55:22.577Z,28.30
2022-08-24T09:58:22.171Z,30.20
2022-08-24T10:01:11.805Z,30.30
2022-08-24T10:03:53.363Z,30.50
2022-08-24T10:06:46.635Z,30.80
2022-08-24T10:09:37.791Z,30.40
2022-08-24T10:12:27.731Z,30.30
2022-08-24T10:15:21.177Z,30.40
2022-08-24T10:18:05.775Z,30.70
2022-08-24T10:23:06.163Z,30.10
2022-08-24T10:25:55.084Z,30.30
2022-08-24T10:28:21.873Z,29.40
2022-08-24T10:31:12.683Z,30.40
2022-08-24T10:34:38.358Z,30.80
2022-08-24T10:37:26.590Z,29.20
2022-08-24T10:40:40.110Z,29.10
2022-08-24T10:43:26.180Z,28.50
2022-08-24T10:46:04.872Z,27.70
2022-08-24T10:48:33.413Z,27.60
2022-08-24T10:51:33.758Z,28.30
2022-08-24T10:54:04.345Z,28.70
2022-08-24T10:56:41.910Z,29.20
2022-08-24T10:59:39.451Z,28.80
2022-08-24T11:02:35.052Z,29.50
2022-08-24T11:05:11.158Z,30.00
2022-08-24T11:07:55.471Z,29.70
2022-08-24T11:10:29.169Z,30.50
2022-08-24T11:12:56.550Z,30.50
2022-08-24T11:15:26.349Z,29.40
2022-08-24T11:18:03.460Z,29.70
2022-08-24T11:20:41.879Z,29.70
2022-08-24T11:23:14.603Z,30.20
2022-08-24T11:26:03.316Z,30.90
2022-08-24T11:28:32.568Z,31.60
2022-08-24T11:31:00.698Z,32.00
2022-08-24T11:33:34.126Z,32.30
2022-08-24T11:36:02.736Z,31.70
2022-08-24T11:38:32.676Z,31.90
2022-08-24T11:41:26.237Z,31.70
2022-08-24T11:44:03.560Z,31.70
2022-08-24T11:46:56.605Z,32.40
2022-08-24T11:49:29.356Z,32.60
2022-08-24T11:52:17.162Z,32.20
2022-08-24T11:55:09.540Z,32.30
2022-08-24T11:58:02.456Z,31.80
2022-08-24T12:00:48.174Z,31.60
2022-08-24T12:03:42.492Z,32.10
2022-08-24T12:06:33.005Z,31.40
2022-08-24T12:09:22.582Z,31.10
2022-08-24T12:12:07.738Z,31.70
2022-08-24T12:14:43.545Z,31.10
2022-08-24T12:17:14.579Z,30.70
2022-08-24T12:19:52.851Z,30.20
2022-08-24T12:22:21.515Z,30.20
2022-08-24T12:24:58.738Z,30.10
2022-08-24T12:27:26.749Z,30.00
2022-08-24T12:30:07.346Z,30.10
2022-08-24T12:32:45.151Z,31.10
2022-08-24T12:35:34.917Z,31.40
2022-08-24T12:38:43.711Z,31.70
2022-08-24T12:41:33.250Z,31.90
2022-08-24T12:44:12.157Z,32.20
2022-08-24T12:46:40.649Z,32.40
2022-08-24T12:49:19.280Z,32.80
2022-08-24T12:52:12.760Z,32.70
2022-08-24T12:55:14.011Z,32.80
2022-08-24T12:58:30.861Z,32.00
2022-08-24T13:00:52.741Z,31.40
2022-08-24T13:03:31.093Z,31.90
2022-08-24T13:06:00.862Z,31.90
2022-08-24T13:08:43.280Z,32.20
2022-08-24T13:11:14.224Z,32.40
2022-08-24T13:13:46.148Z,32.60
2022-08-24T13:17:06.729Z,32.40
2022-08-24T13:19:40.334Z,32.40
2022-08-24T13:22:09.876Z,32.40
2022-08-24T13:24:36.604Z,32.20
2022-08-24T13:27:12.471Z,32.10
2022-08-24T13:30:00.812Z,32.00
2022-08-24T13:32:35.519Z,32.00
2022-08-24T13:35:35.482Z,31.70
2022-08-24T13:38:24.016Z,31.60
2022-08-24T13:41:00.994Z,31.40
2022-08-24T13:43:38.538Z,31.30
2022-08-24T13:46:43.088Z,31.20
2022-08-24T13:49:15.947Z,31.20
2022-08-24T13:51:49.925Z,31.20
2022-08-24T13:54:43.891Z,31.10
2022-08-24T13:57:23.764Z,31.00
2022-08-24T14:00:15.840Z,31.10
2022-08-24T14:03:00.897Z,31.50
2022-08-24T14:05:46.352Z,31.50
2022-08-24T14:08:32.605Z,31.80
2022-08-24T14:11:08.085Z,31.90
2022-08-24T14:13:56.407Z,32.10
2022-08-24T14:16:44.041Z,32.60
2022-08-24T14:19:27.077Z,32.30
2022-08-24T14:22:16.022Z,32.10
2022-08-24T14:24:48.671Z,32.50
2022-08-24T14:27:33.950Z,32.40
2022-08-24T14:30:29.806Z,32.70
2022-08-24T14:32:59.558Z,32.30
2022-08-24T14:35:44.053Z,32.20
2022-08-24T14:38:19.745Z,32.70
2022-08-24T14:40:52.094Z,32.80
2022-08-24T14:43:22.110Z,32.80
2022-08-24T14:46:11.976Z,33.10
2022-08-24T14:49:09.619Z,33.40
2022-08-24T14:52:15.491Z,33.80
2022-08-24T14:55:02.446Z,33.60
2022-08-24T14:57:35.051Z,33.60
2022-08-24T15:00:18.291Z,33.80
2022-08-24T15:02:51.198Z,33.60
2022-08-24T15:05:24.133Z,33.80
2022-08-24T15:08:09.964Z,34.10
2022-08-24T15:10:55.307Z,34.10
2022-08-24T15:13:38.245Z,34.40
2022-08-24T15:16:13.219Z,34.10
2022-08-24T15:18:51.276Z,34.30
2022-08-24T15:21:28.787Z,34.50
2022-08-24T15:24:14.618Z,34.50
2022-08-24T15:26:58.841Z,34.80
2022-08-24T15:29:29.387Z,34.80
2022-08-24T15:32:02.347Z,34.10
2022-08-24T15:34:37.537Z,34.00
2022-08-24T15:37:04.982Z,33.80
2022-08-24T15:39:32.594Z,34.40
2022-08-24T15:44:24.540Z,34.40
2022-08-24T15:47:14.239Z,34.10
2022-08-24T15:50:09.153Z,34.20
2022-08-24T15:52:49.518Z,34.30
2022-08-24T15:55:33.573Z,34.30
2022-08-24T15:58:12.409Z,34.30
2022-08-24T16:00:43.785Z,33.90
2022-08-24T16:03:38.911Z,34.10
2022-08-24T16:06:46.377Z,34.00
2022-08-24T16:09:18.808Z,34.10
2022-08-24T16:11:49.191Z,33.90
2022-08-24T16:14:29.402Z,34.00
2022-08-24T16:16:56.805Z,33.90
2022-08-24T16:19:30.593Z,33.80
2022-08-24T16:22:07.473Z,33.70
2022-08-24T16:24:37.664Z,33.40
2022-08-24T16:27:11.603Z,33.30
2022-08-24T16:29:38.396Z,33.20
2022-08-24T16:32:38.373Z,32.90
2022-08-24T16:35:09.259Z,32.30
2022-08-24T16:37:36.057Z,31.90
2022-08-24T16:40:04.288Z,31.30
2022-08-24T16:42:31.714Z,30.90
2022-08-24T16:44:59.429Z,30.50
2022-08-24T16:47:27.617Z,30.00
2022-08-24T16:49:55.112Z,29.70
2022-08-24T16:53:37.572Z,29.30
2022-08-24T16:56:04.598Z,28.90
2022-08-24T17:01:20.633Z,28.50
2022-08-24T17:06:34.220Z,28.00
2022-08-24T17:11:48.155Z,27.70
2022-08-24T17:14:16.250Z,27.50
2022-08-24T17:16:43.390Z,27.30
2022-08-24T17:19:13.986Z,27.20
2022-08-24T17:21:41.304Z,27.00
2022-08-24T17:24:08.962Z,26.90
2022-08-24T17:26:36.804Z,26.80
2022-08-24T17:29:12.521Z,26.60
2022-08-24T17:31:43.791Z,26.70
2022-08-24T17:34:13.856Z,26.60
2022-08-24T17:36:43.589Z,26.30
2022-08-24T17:39:12.691Z,26.20
2022-08-24T17:41:39.534Z,26.00
2022-08-24T17:44:09.731Z,26.00
2022-08-24T17:46:36.614Z,25.90
2022-08-24T17:49:06.416Z,25.80
2022-08-24T17:51:33.203Z,25.70
2022-08-24T17:54:00.266Z,25.50
2022-08-24T17:56:31.427Z,25.40
2022-08-24T18:00:10.741Z,25.10
2022-08-24T18:02:37.780Z,25.00
2022-08-24T18:07:54.598Z,24.90
2022-08-24T18:13:12.352Z,24.80
2022-08-24T18:15:40.059Z,24.70
2022-08-24T18:20:55.092Z,24.50
2022-08-24T18:23:24.774Z,24.40
2022-08-24T18:25:52.977Z,24.30
2022-08-24T18:28:22.351Z,24.30
2022-08-24T18:30:50.873Z,24.20
2022-08-24T18:36:04.704Z,24.10
2022-08-24T18:41:18.605Z,23.80
2022-08-24T18:43:45.517Z,23.80
2022-08-24T18:46:12.650Z,23.70
2022-08-24T18:48:39.510Z,23.60
2022-08-24T18:51:06.485Z,23.60
2022-08-24T18:53:33.541Z,23.50
2022-08-24T18:56:08.177Z,23.40
2022-08-24T19:01:27.225Z,23.30
2022-08-24T19:03:54.482Z,23.20
2022-08-24T19:06:22.257Z,23.20
2022-08-24T19:08:49.327Z,23.20
2022-08-24T19:11:21.519Z,23.10
2022-08-24T19:13:48.426Z,23.10
2022-08-24T19:16:15.371Z,23.00
2022-08-24T19:18:42.196Z,23.00
2022-08-24T19:21:09.099Z,22.90
2022-08-24T19:23:37.005Z,22.90
2022-08-24T19:26:04.061Z,22.80
2022-08-24T19:28:31.250Z,22.80
2022-08-24T19:31:01.722Z,22.70
2022-08-24T19:33:34.323Z,22.70
2022-08-24T19:36:01.139Z,22.60
2022-08-24T19:38:27.926Z,22.60
2022-08-24T19:40:56.661Z,22.50
2022-08-24T19:43:28.038Z,22.50
2022-08-24T19:45:56.191Z,22.50
2022-08-24T19:48:23.045Z,22.40
2022-08-24T19:50:50.520Z,22.40
2022-08-24T19:53:17.332Z,22.30
2022-08-24T19:55:46.596Z,22.20
2022-08-24T19:58:28.907Z,22.20
2022-08-24T20:01:05.141Z,22.10
2022-08-24T20:03:31.955Z,22.10
2022-08-24T20:05:58.833Z,22.10
2022-08-24T20:08:25.654Z,22.00
2022-08-24T20:10:52.561Z,22.00
2022-08-24T20:13:19.502Z,21.90
2022-08-24T20:15:46.491Z,21.90
2022-08-24T20:18:14.767Z,21.90
2022-08-24T20:20:41.664Z,21.80
2022-08-24T20:23:08.896Z,21.80
2022-08-24T20:25:37.661Z,21.70
2022-08-24T20:28:28.203Z,21.70
2022-08-24T20:30:53.084Z,21.70
2022-08-24T20:33:20.382Z,21.60
2022-08-24T20:35:47.742Z,21.50
2022-08-24T20:38:18.165Z,21.40
2022-08-24T20:40:45.930Z,21.40
2022-08-24T20:43:12.935Z,21.40
2022-08-24T20:45:40.617Z,21.40
2022-08-24T20:48:08.380Z,21.30
2022-08-24T20:50:35.910Z,21.30
2022-08-24T20:53:02.932Z,21.20
2022-08-24T20:55:29.862Z,21.20
2022-08-24T20:57:58.382Z,21.20
2022-08-24T21:00:25.157Z,21.10
2022-08-24T21:02:51.950Z,21.10
2022-08-24T21:05:18.714Z,21.10
2022-08-24T21:07:45.628Z,21.00
2022-08-24T21:10:12.569Z,21.00
2022-08-24T21:12:39.417Z,20.90
2022-08-24T21:15:11.562Z,20.80
2022-08-24T21:17:38.368Z,20.90
2022-08-24T21:20:05.645Z,20.80
2022-08-24T21:22:32.428Z,20.70
2022-08-24T21:24:59.192Z,20.70
2022-08-24T21:27:26.016Z,20.70
2022-08-24T21:29:52.791Z,20.60
2022-08-24T21:32:19.569Z,20.60
2022-08-24T21:34:46.346Z,20.60
2022-08-24T21:37:16.559Z,20.50
2022-08-24T21:39:45.984Z,20.50
2022-08-24T21:42:14.943Z,20.50
2022-08-24T21:44:44.205Z,20.40
2022-08-24T21:47:11.048Z,20.40
2022-08-24T21:49:37.905Z,20.40
2022-08-24T21:52:04.694Z,20.40
2022-08-24T21:54:31.481Z,20.30
2022-08-24T21:56:58.436Z,20.20
2022-08-24T21:59:25.233Z,20.20
2022-08-24T22:01:52.041Z,20.20
2022-08-24T22:04:18.891Z,20.10
2022-08-24T22:06:45.681Z,20.10
2022-08-24T22:09:12.471Z,20.00
2022-08-24T22:11:39.403Z,20.00
2022-08-24T22:14:06.275Z,20.00
2022-08-24T22:16:33.141Z,20.00
2022-08-24T22:19:04.544Z,20.00
2022-08-24T22:21:31.982Z,19.90
2022-08-24T22:24:03.254Z,20.00
2022-08-24T22:26:30.207Z,19.80
2022-08-24T22:28:57.224Z,19.80
2022-08-24T22:31:28.541Z,19.80
2022-08-24T22:33:57.660Z,19.70
2022-08-24T22:36:26.176Z,19.80
2022-08-24T22:38:55.344Z,19.70
2022-08-24T22:41:22.479Z,19.70
2022-08-24T22:43:51.294Z,19.60
2022-08-24T22:46:18.729Z,19.70
2022-08-24T22:48:45.687Z,19.60
2022-08-24T22:51:13.047Z,19.60
2022-08-24T22:53:40.708Z,19.50
2022-08-24T22:56:38.169Z,19.50
2022-08-24T22:59:06.256Z,19.50
2022-08-24T23:01:38.968Z,19.40
2022-08-24T23:04:13.025Z,19.40
2022-08-24T23:06:39.822Z,19.40
2022-08-24T23:09:07.737Z,19.30
2022-08-24T23:11:35.202Z,19.30
2022-08-24T23:14:03.315Z,19.30
2022-08-24T23:16:33.175Z,19.20
2022-08-24T23:19:00.562Z,19.20
2022-08-24T23:21:27.679Z,19.20
2022-08-24T23:23:55.340Z,19.20
2022-08-24T23:26:22.493Z,19.20
2022-08-24T23:28:50.213Z,19.20
2022-08-24T23:31:18.868Z,19.20
2022-08-24T23:33:46.216Z,19.20
2022-08-24T23:36:15.673Z,19.10
2022-08-24T23:38:42.907Z,19.00
2022-08-24T23:41:13.935Z,18.90
2022-08-24T23:43:41.498Z,18.90
2022-08-24T23:46:09.820Z,18.80
2022-08-24T23:48:36.857Z,18.80
2022-08-24T23:51:07.555Z,18.90
2022-08-24T23:53:34.952Z,18.80
2022-08-24T23:56:13.996Z,18.80
2022-08-24T23:58:41.215Z,18.70
